sensor_id;sensor_type;location;lat;lon;timestamp;pressure;altitude;pressure_sealevel;temperature;humidity
29247;BME280;16272;48.188;9.964;2023-02-28T00:00:27;96217.59;;;-2.44;70.29
29247;BME280;16272;48.188;9.964;2023-02-28T00:02:52;96206.66;;;-2.31;70.24
29247;BME280;16272;48.188;9.964;2023-02-28T00:05:22;96208.16;;;-2.68;70.46
29247;BME280;16272;48.188;9.964;2023-02-28T00:07:47;96212.09;;;-2.58;71.56
29247;BME280;16272;48.188;9.964;2023-02-28T00:10:17;96207.66;;;-2.56;70.50
29247;BME280;16272;48.188;9.964;2023-02-28T00:12:48;96209.19;;;-2.30;69.72
29247;BME280;16272;48.188;9.964;2023-02-28T00:15:14;96214.84;;;-2.41;70.19
29247;BME280;16272;48.188;9.964;2023-02-28T00:17:39;96204.47;;;-2.20;69.21
29247;BME280;16272;48.188;9.964;2023-02-28T00:20:06;96216.91;;;-2.49;70.31
29247;BME280;16272;48.188;9.964;2023-02-28T00:22:34;96214.78;;;-2.61;70.28
29247;BME280;16272;48.188;9.964;2023-02-28T00:24:59;96207.53;;;-2.31;69.05
29247;BME280;16272;48.188;9.964;2023-02-28T00:27:25;96201.91;;;-2.22;68.51
29247;BME280;16272;48.188;9.964;2023-02-28T00:29:50;96200.56;;;-2.30;69.66
29247;BME280;16272;48.188;9.964;2023-02-28T00:32:15;96200.53;;;-2.51;69.61
29247;BME280;16272;48.188;9.964;2023-02-28T00:34:41;96193.81;;;-2.14;69.43
29247;BME280;16272;48.188;9.964;2023-02-28T00:37:07;96207.94;;;-2.42;69.74
29247;BME280;16272;48.188;9.964;2023-02-28T00:39:40;96200.63;;;-2.32;69.81
29247;BME280;16272;48.188;9.964;2023-02-28T00:42:06;96191.84;;;-2.29;69.89
29247;BME280;16272;48.188;9.964;2023-02-28T00:44:32;96193.81;;;-2.34;69.63
29247;BME280;16272;48.188;9.964;2023-02-28T00:46:58;96193.34;;;-2.24;69.98
29247;BME280;16272;48.188;9.964;2023-02-28T00:49:25;96198.09;;;-2.13;69.91
29247;BME280;16272;48.188;9.964;2023-02-28T00:51:52;96204.34;;;-2.37;70.36
29247;BME280;16272;48.188;9.964;2023-02-28T00:54:18;96198.63;;;-2.05;69.54
29247;BME280;16272;48.188;9.964;2023-02-28T00:56:43;96194.84;;;-2.18;69.33
29247;BME280;16272;48.188;9.964;2023-02-28T00:59:09;96195.81;;;-2.20;69.85
29247;BME280;16272;48.188;9.964;2023-02-28T01:01:34;96181.84;;;-2.18;69.92
29247;BME280;16272;48.188;9.964;2023-02-28T01:04:00;96191.44;;;-2.20;70.50
29247;BME280;16272;48.188;9.964;2023-02-28T01:06:25;96183.75;;;-2.23;70.24
29247;BME280;16272;48.188;9.964;2023-02-28T01:08:50;96190.63;;;-2.20;70.29
29247;BME280;16272;48.188;9.964;2023-02-28T01:11:17;96179.81;;;-2.32;71.08
29247;BME280;16272;48.188;9.964;2023-02-28T01:13:44;96177.94;;;-2.08;70.15
29247;BME280;16272;48.188;9.964;2023-02-28T01:16:10;96182.88;;;-2.43;70.81
29247;BME280;16272;48.188;9.964;2023-02-28T01:18:36;96186.59;;;-2.50;70.66
29247;BME280;16272;48.188;9.964;2023-02-28T01:21:10;96184.66;;;-2.45;71.10
29247;BME280;16272;48.188;9.964;2023-02-28T01:23:36;96175.59;;;-2.34;70.75
29247;BME280;16272;48.188;9.964;2023-02-28T01:26:06;96196.91;;;-2.47;71.48
29247;BME280;16272;48.188;9.964;2023-02-28T01:28:32;96185.84;;;-2.52;71.48
29247;BME280;16272;48.188;9.964;2023-02-28T01:30:57;96180.06;;;-2.38;70.54
29247;BME280;16272;48.188;9.964;2023-02-28T01:33:23;96181.53;;;-2.53;70.85
29247;BME280;16272;48.188;9.964;2023-02-28T01:35:48;96172.31;;;-2.40;70.19
29247;BME280;16272;48.188;9.964;2023-02-28T01:38:14;96168.34;;;-2.48;70.46
29247;BME280;16272;48.188;9.964;2023-02-28T01:40:39;96174.72;;;-2.35;69.92
29247;BME280;16272;48.188;9.964;2023-02-28T01:43:20;96174.38;;;-2.48;70.66
29247;BME280;16272;48.188;9.964;2023-02-28T01:45:45;96164.78;;;-2.25;69.85
29247;BME280;16272;48.188;9.964;2023-02-28T01:48:11;96165.38;;;-2.39;69.94
29247;BME280;16272;48.188;9.964;2023-02-28T01:50:41;96161.94;;;-2.19;69.54
29247;BME280;16272;48.188;9.964;2023-02-28T01:53:15;96153.06;;;-2.35;69.46
29247;BME280;16272;48.188;9.964;2023-02-28T01:55:45;96151.78;;;-2.25;69.34
29247;BME280;16272;48.188;9.964;2023-02-28T01:58:11;96148.47;;;-2.29;69.40
29247;BME280;16272;48.188;9.964;2023-02-28T02:00:37;96138.06;;;-2.29;69.73
29247;BME280;16272;48.188;9.964;2023-02-28T02:03:09;96140.50;;;-2.46;69.90
29247;BME280;16272;48.188;9.964;2023-02-28T02:05:37;96138.38;;;-2.36;69.20
29247;BME280;16272;48.188;9.964;2023-02-28T02:08:11;96145.09;;;-2.31;69.39
29247;BME280;16272;48.188;9.964;2023-02-28T02:10:48;96145.47;;;-2.40;69.08
29247;BME280;16272;48.188;9.964;2023-02-28T02:13:22;96140.13;;;-2.37;68.90
29247;BME280;16272;48.188;9.964;2023-02-28T02:32:04;96139.31;;;-2.60;68.92
29247;BME280;16272;48.188;9.964;2023-02-28T02:34:49;96133.22;;;-2.38;68.73
29247;BME280;16272;48.188;9.964;2023-02-28T02:42:45;96137.47;;;-2.35;68.53
29247;BME280;16272;48.188;9.964;2023-02-28T02:47:43;96147.78;;;-2.13;69.45
29247;BME280;16272;48.188;9.964;2023-02-28T02:50:14;96144.34;;;-2.14;68.94
29247;BME280;16272;48.188;9.964;2023-02-28T02:52:48;96148.72;;;-2.35;68.87
29247;BME280;16272;48.188;9.964;2023-02-28T02:55:17;96139.66;;;-2.47;69.10
29247;BME280;16272;48.188;9.964;2023-02-28T02:57:57;96137.09;;;-2.26;68.66
29247;BME280;16272;48.188;9.964;2023-02-28T03:00:27;96129.38;;;-2.09;67.40
29247;BME280;16272;48.188;9.964;2023-02-28T03:02:56;96138.72;;;-2.44;68.23
29247;BME280;16272;48.188;9.964;2023-02-28T03:05:32;96147.88;;;-2.35;68.87
29247;BME280;16272;48.188;9.964;2023-02-28T03:08:03;96149.56;;;-2.34;68.17
29247;BME280;16272;48.188;9.964;2023-02-28T03:10:35;96144.22;;;-2.52;68.77
29247;BME280;16272;48.188;9.964;2023-02-28T03:13:12;96145.66;;;-2.45;68.55
29247;BME280;16272;48.188;9.964;2023-02-28T03:21:24;96152.50;;;-2.64;69.19
29247;BME280;16272;48.188;9.964;2023-02-28T03:23:59;96148.25;;;-2.45;68.82
29247;BME280;16272;48.188;9.964;2023-02-28T03:26:29;96154.38;;;-2.25;68.21
29247;BME280;16272;48.188;9.964;2023-02-28T03:29:00;96149.69;;;-2.37;68.36
29247;BME280;16272;48.188;9.964;2023-02-28T03:31:33;96149.81;;;-1.99;67.26
29247;BME280;16272;48.188;9.964;2023-02-28T03:34:08;96150.41;;;-2.34;68.13
29247;BME280;16272;48.188;9.964;2023-02-28T03:36:39;96148.78;;;-2.16;68.14
29247;BME280;16272;48.188;9.964;2023-02-28T03:39:14;96150.69;;;-2.19;67.82
29247;BME280;16272;48.188;9.964;2023-02-28T03:42:18;96161.28;;;-2.24;68.17
29247;BME280;16272;48.188;9.964;2023-02-28T03:44:49;96166.84;;;-2.33;68.39
29247;BME280;16272;48.188;9.964;2023-02-28T03:47:17;96158.03;;;-2.29;68.23
29247;BME280;16272;48.188;9.964;2023-02-28T03:49:54;96159.69;;;-2.28;67.85
29247;BME280;16272;48.188;9.964;2023-02-28T03:52:25;96162.44;;;-2.11;67.56
29247;BME280;16272;48.188;9.964;2023-02-28T03:54:55;96168.94;;;-2.42;68.36
29247;BME280;16272;48.188;9.964;2023-02-28T03:57:28;96161.34;;;-2.26;68.12
29247;BME280;16272;48.188;9.964;2023-02-28T03:59:59;96166.44;;;-2.45;67.60
29247;BME280;16272;48.188;9.964;2023-02-28T04:02:29;96160.63;;;-2.29;67.24
29247;BME280;16272;48.188;9.964;2023-02-28T04:04:54;96160.09;;;-2.37;68.00
29247;BME280;16272;48.188;9.964;2023-02-28T04:07:20;96165.56;;;-2.23;68.47
29247;BME280;16272;48.188;9.964;2023-02-28T04:09:46;96165.03;;;-2.31;67.63
29247;BME280;16272;48.188;9.964;2023-02-28T04:12:11;96159.69;;;-2.28;67.81
29247;BME280;16272;48.188;9.964;2023-02-28T04:14:36;96174.19;;;-2.43;67.81
29247;BME280;16272;48.188;9.964;2023-02-28T04:17:02;96175.13;;;-2.44;67.61
29247;BME280;16272;48.188;9.964;2023-02-28T04:19:27;96160.09;;;-2.17;67.71
29247;BME280;16272;48.188;9.964;2023-02-28T04:21:53;96170.88;;;-2.47;68.77
29247;BME280;16272;48.188;9.964;2023-02-28T04:24:24;96167.50;;;-2.28;68.02
29247;BME280;16272;48.188;9.964;2023-02-28T04:26:52;96166.63;;;-2.49;68.21
29247;BME280;16272;48.188;9.964;2023-02-28T04:29:24;96167.25;;;-2.43;67.09
29247;BME280;16272;48.188;9.964;2023-02-28T04:31:49;96169.25;;;-2.49;68.98
29247;BME280;16272;48.188;9.964;2023-02-28T04:34:15;96161.66;;;-2.33;67.91
29247;BME280;16272;48.188;9.964;2023-02-28T04:36:40;96169.34;;;-2.30;68.52
29247;BME280;16272;48.188;9.964;2023-02-28T04:39:05;96170.09;;;-2.28;68.24
29247;BME280;16272;48.188;9.964;2023-02-28T04:41:31;96172.31;;;-2.40;68.71
29247;BME280;16272;48.188;9.964;2023-02-28T04:43:56;96163.22;;;-2.29;67.96
29247;BME280;16272;48.188;9.964;2023-02-28T04:46:22;96171.88;;;-2.71;68.58
29247;BME280;16272;48.188;9.964;2023-02-28T04:48:48;96159.88;;;-2.33;67.62
29247;BME280;16272;48.188;9.964;2023-02-28T04:51:15;96169.59;;;-2.16;68.18
29247;BME280;16272;48.188;9.964;2023-02-28T04:53:42;96165.19;;;-2.34;67.25
29247;BME280;16272;48.188;9.964;2023-02-28T04:56:11;96174.47;;;-2.29;68.29
29247;BME280;16272;48.188;9.964;2023-02-28T04:58:36;96176.44;;;-2.56;69.16
29247;BME280;16272;48.188;9.964;2023-02-28T05:01:16;96179.75;;;-2.30;68.69
29247;BME280;16272;48.188;9.964;2023-02-28T05:03:43;96183.94;;;-2.48;69.79
29247;BME280;16272;48.188;9.964;2023-02-28T05:06:09;96180.78;;;-2.34;68.69
29247;BME280;16272;48.188;9.964;2023-02-28T05:08:35;96178.97;;;-2.32;68.22
29247;BME280;16272;48.188;9.964;2023-02-28T05:11:01;96184.31;;;-2.58;68.93
29247;BME280;16272;48.188;9.964;2023-02-28T05:13:27;96186.25;;;-2.41;68.51
29247;BME280;16272;48.188;9.964;2023-02-28T05:15:53;96189.34;;;-2.53;68.32
29247;BME280;16272;48.188;9.964;2023-02-28T05:18:18;96184.69;;;-2.67;70.30
29247;BME280;16272;48.188;9.964;2023-02-28T05:20:44;96189.50;;;-2.35;68.66
29247;BME280;16272;48.188;9.964;2023-02-28T05:23:13;96187.25;;;-2.45;70.10
29247;BME280;16272;48.188;9.964;2023-02-28T05:25:40;96192.53;;;-2.46;69.66
29247;BME280;16272;48.188;9.964;2023-02-28T05:28:05;96184.66;;;-2.45;69.12
29247;BME280;16272;48.188;9.964;2023-02-28T05:30:31;96200.06;;;-2.61;69.43
29247;BME280;16272;48.188;9.964;2023-02-28T05:32:57;96181.97;;;-2.21;69.32
29247;BME280;16272;48.188;9.964;2023-02-28T05:35:23;96188.84;;;-2.41;68.63
29247;BME280;16272;48.188;9.964;2023-02-28T05:37:49;96191.94;;;-2.53;68.73
29247;BME280;16272;48.188;9.964;2023-02-28T05:40:14;96190.97;;;-2.50;70.54
29247;BME280;16272;48.188;9.964;2023-02-28T05:42:42;96192.28;;;-2.40;68.86
29247;BME280;16272;48.188;9.964;2023-02-28T05:45:08;96194.69;;;-2.15;69.25
29247;BME280;16272;48.188;9.964;2023-02-28T05:47:34;96202.59;;;-2.59;69.54
29247;BME280;16272;48.188;9.964;2023-02-28T05:50:00;96203.69;;;-2.43;69.39
29247;BME280;16272;48.188;9.964;2023-02-28T05:52:26;96190.72;;;-2.44;69.32
29247;BME280;16272;48.188;9.964;2023-02-28T05:54:51;96198.84;;;-2.52;68.94
29247;BME280;16272;48.188;9.964;2023-02-28T05:57:17;96201.66;;;-2.36;69.67
29247;BME280;16272;48.188;9.964;2023-02-28T05:59:42;96208.88;;;-2.43;69.44
29247;BME280;16272;48.188;9.964;2023-02-28T06:02:12;96202.31;;;-2.31;69.04
29247;BME280;16272;48.188;9.964;2023-02-28T06:04:38;96209.25;;;-2.52;69.02
29247;BME280;16272;48.188;9.964;2023-02-28T06:07:03;96201.13;;;-2.66;70.16
29247;BME280;16272;48.188;9.964;2023-02-28T06:09:29;96202.31;;;-2.73;71.09
29247;BME280;16272;48.188;9.964;2023-02-28T06:11:54;96207.66;;;-2.34;69.12
29247;BME280;16272;48.188;9.964;2023-02-28T06:14:20;96205.75;;;-2.51;69.97
29247;BME280;16272;48.188;9.964;2023-02-28T06:16:46;96202.50;;;-2.35;69.24
29247;BME280;16272;48.188;9.964;2023-02-28T06:19:12;96212.59;;;-2.70;70.94
29247;BME280;16272;48.188;9.964;2023-02-28T06:21:38;96207.66;;;-2.56;71.05
29247;BME280;16272;48.188;9.964;2023-02-28T06:24:04;96204.38;;;-2.39;69.50
29247;BME280;16272;48.188;9.964;2023-02-28T06:26:31;96217.69;;;-2.25;69.39
29247;BME280;16272;48.188;9.964;2023-02-28T06:28:57;96225.44;;;-2.45;69.97
29247;BME280;16272;48.188;9.964;2023-02-28T06:31:22;96224.44;;;-2.20;68.54
29247;BME280;16272;48.188;9.964;2023-02-28T06:33:48;96232.50;;;-2.71;69.91
29247;BME280;16272;48.188;9.964;2023-02-28T06:36:15;96232.81;;;-2.34;70.92
29247;BME280;16272;48.188;9.964;2023-02-28T06:38:41;96236.63;;;-2.21;69.47
29247;BME280;16272;48.188;9.964;2023-02-28T06:41:07;96236.69;;;-2.45;71.05
29247;BME280;16272;48.188;9.964;2023-02-28T06:43:36;96229.66;;;-2.20;68.54
29247;BME280;16272;48.188;9.964;2023-02-28T06:46:05;96240.63;;;-2.34;69.65
29247;BME280;16272;48.188;9.964;2023-02-28T06:48:30;96251.94;;;-2.35;70.14
29247;BME280;16272;48.188;9.964;2023-02-28T06:51:08;96248.03;;;-2.25;68.16
29247;BME280;16272;48.188;9.964;2023-02-28T06:53:34;96246.13;;;-1.99;68.35
29247;BME280;16272;48.188;9.964;2023-02-28T06:55:59;96254.72;;;-1.97;68.31
29247;BME280;16272;48.188;9.964;2023-02-28T06:58:25;96252.06;;;-2.38;69.67
29247;BME280;16272;48.188;9.964;2023-02-28T07:00:51;96249.63;;;-2.21;70.09
29247;BME280;16272;48.188;9.964;2023-02-28T07:03:17;96247.91;;;-2.00;68.83
29247;BME280;16272;48.188;9.964;2023-02-28T07:05:43;96249.38;;;-1.94;68.68
29247;BME280;16272;48.188;9.964;2023-02-28T07:08:09;96266.91;;;-2.20;69.16
29247;BME280;16272;48.188;9.964;2023-02-28T07:10:37;96257.44;;;-2.00;69.62
29247;BME280;16272;48.188;9.964;2023-02-28T07:13:03;96260.09;;;-2.02;68.89
29247;BME280;16272;48.188;9.964;2023-02-28T07:15:29;96254.84;;;-2.00;68.05
29247;BME280;16272;48.188;9.964;2023-02-28T07:17:54;96265.13;;;-2.18;69.03
29247;BME280;16272;48.188;9.964;2023-02-28T07:20:19;96272.22;;;-2.01;69.25
29247;BME280;16272;48.188;9.964;2023-02-28T07:22:45;96270.44;;;-2.43;69.75
29247;BME280;16272;48.188;9.964;2023-02-28T07:25:10;96268.63;;;-1.98;69.00
29247;BME280;16272;48.188;9.964;2023-02-28T07:27:35;96268.25;;;-2.32;69.01
29247;BME280;16272;48.188;9.964;2023-02-28T07:30:01;96277.44;;;-2.67;70.95
29247;BME280;16272;48.188;9.964;2023-02-28T07:32:29;96271.34;;;-2.22;70.62
29247;BME280;16272;48.188;9.964;2023-02-28T07:34:55;96272.38;;;-2.26;68.69
29247;BME280;16272;48.188;9.964;2023-02-28T07:37:20;96275.34;;;-2.35;69.53
29247;BME280;16272;48.188;9.964;2023-02-28T07:39:45;96272.56;;;-1.88;68.78
29247;BME280;16272;48.188;9.964;2023-02-28T07:42:11;96283.63;;;-2.26;69.22
29247;BME280;16272;48.188;9.964;2023-02-28T07:44:38;96288.88;;;-2.49;70.75
29247;BME280;16272;48.188;9.964;2023-02-28T07:47:09;96288.47;;;-2.38;70.15
29247;BME280;16272;48.188;9.964;2023-02-28T07:49:37;96286.41;;;-2.30;69.87
29247;BME280;16272;48.188;9.964;2023-02-28T07:52:04;96286.53;;;-2.33;69.29
29247;BME280;16272;48.188;9.964;2023-02-28T07:54:30;96283.22;;;-1.94;69.31
29247;BME280;16272;48.188;9.964;2023-02-28T07:56:55;96288.31;;;-1.91;69.02
29247;BME280;16272;48.188;9.964;2023-02-28T07:59:21;96291.47;;;-2.05;69.17
29247;BME280;16272;48.188;9.964;2023-02-28T08:01:46;96287.72;;;-2.20;68.38
29247;BME280;16272;48.188;9.964;2023-02-28T08:04:11;96289.56;;;-2.22;69.60
29247;BME280;16272;48.188;9.964;2023-02-28T08:06:37;96290.03;;;-2.12;69.54
29247;BME280;16272;48.188;9.964;2023-02-28T08:09:02;96301.78;;;-2.24;69.81
29247;BME280;16272;48.188;9.964;2023-02-28T08:11:28;96290.72;;;-2.29;69.74
29247;BME280;16272;48.188;9.964;2023-02-28T08:13:54;96296.50;;;-2.45;70.01
29247;BME280;16272;48.188;9.964;2023-02-28T08:16:20;96292.88;;;-2.18;69.74
29247;BME280;16272;48.188;9.964;2023-02-28T08:18:47;96298.44;;;-2.06;70.68
29247;BME280;16272;48.188;9.964;2023-02-28T08:21:12;96295.59;;;-2.22;69.94
29247;BME280;16272;48.188;9.964;2023-02-28T08:23:38;96303.41;;;-1.79;68.44
29247;BME280;16272;48.188;9.964;2023-02-28T08:26:04;96293.13;;;-1.61;68.41
29247;BME280;16272;48.188;9.964;2023-02-28T08:28:29;96294.34;;;-1.50;68.11
29247;BME280;16272;48.188;9.964;2023-02-28T08:30:55;96297.56;;;-1.63;68.67
29247;BME280;16272;48.188;9.964;2023-02-28T08:33:20;96296.63;;;-1.62;68.06
29247;BME280;16272;48.188;9.964;2023-02-28T08:35:45;96305.50;;;-1.67;68.21
29247;BME280;16272;48.188;9.964;2023-02-28T08:38:11;96305.47;;;-1.87;69.10
29247;BME280;16272;48.188;9.964;2023-02-28T08:40:36;96311.50;;;-1.64;68.70
29247;BME280;16272;48.188;9.964;2023-02-28T08:43:01;96307.84;;;-1.60;68.09
29247;BME280;16272;48.188;9.964;2023-02-28T08:45:28;96317.88;;;-1.72;67.26
29247;BME280;16272;48.188;9.964;2023-02-28T08:47:56;96323.22;;;-1.54;67.24
29247;BME280;16272;48.188;9.964;2023-02-28T08:50:22;96317.34;;;-1.80;66.74
29247;BME280;16272;48.188;9.964;2023-02-28T08:52:47;96315.78;;;-1.43;67.12
29247;BME280;16272;48.188;9.964;2023-02-28T08:55:12;96332.19;;;-1.61;66.76
29247;BME280;16272;48.188;9.964;2023-02-28T08:57:38;96319.44;;;-1.47;66.05
29247;BME280;16272;48.188;9.964;2023-02-28T09:00:04;96327.41;;;-1.93;68.51
29247;BME280;16272;48.188;9.964;2023-02-28T09:02:30;96319.91;;;-2.00;67.83
29247;BME280;16272;48.188;9.964;2023-02-28T09:04:56;96327.06;;;-2.06;69.82
29247;BME280;16272;48.188;9.964;2023-02-28T09:07:23;96327.41;;;-2.15;70.01
29247;BME280;16272;48.188;9.964;2023-02-28T09:09:48;96340.00;;;-2.04;68.64
29247;BME280;16272;48.188;9.964;2023-02-28T09:12:21;96346.00;;;-1.80;67.69
29247;BME280;16272;48.188;9.964;2023-02-28T09:14:47;96333.13;;;-2.27;68.89
29247;BME280;16272;48.188;9.964;2023-02-28T09:17:12;96339.28;;;-2.08;69.11
29247;BME280;16272;48.188;9.964;2023-02-28T09:19:37;96337.25;;;-1.79;68.30
29247;BME280;16272;48.188;9.964;2023-02-28T09:22:03;96329.59;;;-1.20;67.73
29247;BME280;16272;48.188;9.964;2023-02-28T09:24:28;96328.94;;;-1.46;67.91
29247;BME280;16272;48.188;9.964;2023-02-28T09:26:53;96343.78;;;-1.69;68.62
29247;BME280;16272;48.188;9.964;2023-02-28T09:29:18;96344.16;;;-1.78;68.24
29247;BME280;16272;48.188;9.964;2023-02-28T09:31:44;96338.44;;;-1.86;67.72
29247;BME280;16272;48.188;9.964;2023-02-28T09:34:09;96345.34;;;-1.85;67.78
29247;BME280;16272;48.188;9.964;2023-02-28T09:36:35;96339.06;;;-0.99;66.18
29247;BME280;16272;48.188;9.964;2023-02-28T09:39:02;96340.13;;;-1.03;66.41
29247;BME280;16272;48.188;9.964;2023-02-28T09:41:35;96333.06;;;-1.01;66.11
29247;BME280;16272;48.188;9.964;2023-02-28T09:44:03;96348.09;;;-1.26;67.08
29247;BME280;16272;48.188;9.964;2023-02-28T09:46:51;96350.97;;;-1.74;67.54
29247;BME280;16272;48.188;9.964;2023-02-28T09:49:33;96347.81;;;-1.20;67.47
29247;BME280;16272;48.188;9.964;2023-02-28T09:52:11;96345.03;;;-1.16;67.29
29247;BME280;16272;48.188;9.964;2023-02-28T09:54:38;96360.28;;;-1.48;67.34
29247;BME280;16272;48.188;9.964;2023-02-28T09:59:42;96364.13;;;-1.36;67.30
29247;BME280;16272;48.188;9.964;2023-02-28T10:02:21;96362.19;;;-1.31;67.35
29247;BME280;16272;48.188;9.964;2023-02-28T10:04:58;96349.97;;;-0.70;65.04
29247;BME280;16272;48.188;9.964;2023-02-28T10:13:29;96345.13;;;-0.59;65.85
29247;BME280;16272;48.188;9.964;2023-02-28T10:16:16;96355.97;;;-1.28;67.20
29247;BME280;16272;48.188;9.964;2023-02-28T10:19:02;96359.47;;;-0.88;65.97
29247;BME280;16272;48.188;9.964;2023-02-28T10:21:35;96370.59;;;-0.84;65.76
29247;BME280;16272;48.188;9.964;2023-02-28T10:24:26;96354.41;;;-0.72;64.17
29247;BME280;16272;48.188;9.964;2023-02-28T10:26:59;96364.00;;;-0.53;64.14
29247;BME280;16272;48.188;9.964;2023-02-28T10:29:25;96361.56;;;-0.77;65.47
29247;BME280;16272;48.188;9.964;2023-02-28T10:31:51;96368.09;;;-0.67;65.14
29247;BME280;16272;48.188;9.964;2023-02-28T10:34:16;96365.94;;;-1.38;67.21
29247;BME280;16272;48.188;9.964;2023-02-28T10:36:42;96364.91;;;-0.54;64.06
29247;BME280;16272;48.188;9.964;2023-02-28T10:40:00;96364.59;;;-0.28;65.27
29247;BME280;16272;48.188;9.964;2023-02-28T10:44:44;96363.31;;;-0.57;63.96
29247;BME280;16272;48.188;9.964;2023-02-28T10:47:17;96366.94;;;-0.23;64.61
29247;BME280;16272;48.188;9.964;2023-02-28T10:49:48;96372.81;;;-1.15;64.89
29247;BME280;16272;48.188;9.964;2023-02-28T10:52:33;96370.03;;;-0.91;66.40
29247;BME280;16272;48.188;9.964;2023-02-28T10:55:15;96385.16;;;-0.79;64.36
29247;BME280;16272;48.188;9.964;2023-02-28T10:57:41;96378.28;;;-0.81;64.93
29247;BME280;16272;48.188;9.964;2023-02-28T11:00:15;96385.00;;;-0.19;64.85
29247;BME280;16272;48.188;9.964;2023-02-28T11:02:40;96388.38;;;0.03;63.21
29247;BME280;16272;48.188;9.964;2023-02-28T11:07:59;96384.03;;;-0.35;63.90
29247;BME280;16272;48.188;9.964;2023-02-28T11:10:30;96389.09;;;-0.70;63.72
29247;BME280;16272;48.188;9.964;2023-02-28T11:13:00;96380.78;;;-0.40;64.45
29247;BME280;16272;48.188;9.964;2023-02-28T11:15:28;96380.94;;;-0.62;65.94
29247;BME280;16272;48.188;9.964;2023-02-28T11:17:57;96365.53;;;-0.49;65.16
29247;BME280;16272;48.188;9.964;2023-02-28T11:20:28;96365.69;;;-0.14;64.58
29247;BME280;16272;48.188;9.964;2023-02-28T11:22:54;96374.72;;;-0.22;64.47
29247;BME280;16272;48.188;9.964;2023-02-28T11:27:54;96376.22;;;-0.35;63.98
29247;BME280;16272;48.188;9.964;2023-02-28T11:32:52;96373.06;;;-0.05;62.35
29247;BME280;16272;48.188;9.964;2023-02-28T11:35:24;96375.63;;;0.33;63.53
29247;BME280;16272;48.188;9.964;2023-02-28T11:37:51;96377.81;;;0.06;64.31
29247;BME280;16272;48.188;9.964;2023-02-28T11:40:41;96382.34;;;0.02;62.02
29247;BME280;16272;48.188;9.964;2023-02-28T11:46:07;96375.78;;;0.30;63.01
29247;BME280;16272;48.188;9.964;2023-02-28T11:48:58;96366.63;;;1.08;60.27
29247;BME280;16272;48.188;9.964;2023-02-28T11:51:33;96363.19;;;0.73;60.64
29247;BME280;16272;48.188;9.964;2023-02-28T11:56:32;96348.22;;;1.91;59.91
29247;BME280;16272;48.188;9.964;2023-02-28T12:02:03;96363.06;;;2.23;58.69
29247;BME280;16272;48.188;9.964;2023-02-28T12:07:23;96341.09;;;3.72;52.67
29247;BME280;16272;48.188;9.964;2023-02-28T12:10:01;96348.00;;;2.72;56.12
29247;BME280;16272;48.188;9.964;2023-02-28T12:17:51;96339.03;;;1.19;61.52
29247;BME280;16272;48.188;9.964;2023-02-28T12:28:46;96316.13;;;3.79;55.19
29247;BME280;16272;48.188;9.964;2023-02-28T12:31:18;96312.22;;;3.99;55.07
29247;BME280;16272;48.188;9.964;2023-02-28T12:33:48;96315.41;;;3.63;57.35
29247;BME280;16272;48.188;9.964;2023-02-28T12:36:18;96318.59;;;2.82;55.97
29247;BME280;16272;48.188;9.964;2023-02-28T12:39:00;96318.34;;;3.44;57.63
29247;BME280;16272;48.188;9.964;2023-02-28T12:44:04;96297.66;;;3.25;56.37
29247;BME280;16272;48.188;9.964;2023-02-28T12:46:40;96315.53;;;1.82;61.36
29247;BME280;16272;48.188;9.964;2023-02-28T12:49:11;96318.91;;;2.47;59.89
29247;BME280;16272;48.188;9.964;2023-02-28T12:51:38;96319.91;;;1.82;60.61
29247;BME280;16272;48.188;9.964;2023-02-28T12:56:47;96311.16;;;1.51;60.12
29247;BME280;16272;48.188;9.964;2023-02-28T12:59:53;96298.81;;;2.31;58.48
29247;BME280;16272;48.188;9.964;2023-02-28T13:10:49;96300.34;;;3.38;55.50
29247;BME280;16272;48.188;9.964;2023-02-28T13:13:21;96291.28;;;2.55;59.41
29247;BME280;16272;48.188;9.964;2023-02-28T13:16:05;96289.03;;;3.08;57.65
29247;BME280;16272;48.188;9.964;2023-02-28T13:18:45;96294.13;;;2.67;58.99
29247;BME280;16272;48.188;9.964;2023-02-28T13:21:28;96290.13;;;2.90;57.67
29247;BME280;16272;48.188;9.964;2023-02-28T13:24:03;96289.16;;;2.76;58.44
29247;BME280;16272;48.188;9.964;2023-02-28T13:34:39;96277.19;;;3.01;58.50
29247;BME280;16272;48.188;9.964;2023-02-28T13:47:40;96288.25;;;2.78;56.85
29247;BME280;16272;48.188;9.964;2023-02-28T13:55:54;96300.09;;;3.13;56.02
29247;BME280;16272;48.188;9.964;2023-02-28T13:58:31;96295.44;;;2.29;57.67
29247;BME280;16272;48.188;9.964;2023-02-28T14:04:09;96305.94;;;2.74;57.91
29247;BME280;16272;48.188;9.964;2023-02-28T14:06:47;96299.41;;;2.36;57.44
29247;BME280;16272;48.188;9.964;2023-02-28T14:11:51;96288.63;;;2.86;57.45
29247;BME280;16272;48.188;9.964;2023-02-28T14:17:05;96299.25;;;2.54;58.61
29247;BME280;16272;48.188;9.964;2023-02-28T14:19:33;96304.09;;;3.19;55.96
29247;BME280;16272;48.188;9.964;2023-02-28T14:30:57;96310.19;;;2.91;58.02
29247;BME280;16272;48.188;9.964;2023-02-28T14:38:36;96308.25;;;3.23;56.05
29247;BME280;16272;48.188;9.964;2023-02-28T14:41:06;96317.41;;;2.57;57.90
29247;BME280;16272;48.188;9.964;2023-02-28T14:43:48;96320.66;;;2.16;57.13
29247;BME280;16272;48.188;9.964;2023-02-28T14:46:13;96311.28;;;2.87;59.38
29247;BME280;16272;48.188;9.964;2023-02-28T14:48:39;96318.19;;;2.29;57.82
29247;BME280;16272;48.188;9.964;2023-02-28T14:51:04;96318.38;;;2.56;57.94
29247;BME280;16272;48.188;9.964;2023-02-28T14:53:35;96314.34;;;2.65;59.29
29247;BME280;16272;48.188;9.964;2023-02-28T14:56:01;96309.16;;;2.79;56.93
29247;BME280;16272;48.188;9.964;2023-02-28T14:58:28;96320.94;;;2.42;57.54
29247;BME280;16272;48.188;9.964;2023-02-28T15:00:57;96309.44;;;3.18;55.69
29247;BME280;16272;48.188;9.964;2023-02-28T15:03:31;96307.09;;;3.13;54.18
29247;BME280;16272;48.188;9.964;2023-02-28T15:06:02;96314.41;;;3.08;57.34
29247;BME280;16272;48.188;9.964;2023-02-28T15:08:29;96315.03;;;2.83;55.83
29247;BME280;16272;48.188;9.964;2023-02-28T15:11:02;96317.19;;;2.76;59.62
29247;BME280;16272;48.188;9.964;2023-02-28T15:13:44;96323.78;;;2.53;57.27
29247;BME280;16272;48.188;9.964;2023-02-28T15:16:18;96312.53;;;2.51;56.87
29247;BME280;16272;48.188;9.964;2023-02-28T15:18:48;96317.88;;;2.49;57.54
29247;BME280;16272;48.188;9.964;2023-02-28T15:21:21;96312.81;;;2.91;56.79
29247;BME280;16272;48.188;9.964;2023-02-28T15:23:52;96309.72;;;2.99;56.66
29247;BME280;16272;48.188;9.964;2023-02-28T15:26:22;96303.72;;;2.97;56.41